sensor_id;sensor_type;location;lat;lon;timestamp;P1;durP1;ratioP1;P2;durP2;ratioP2
2129;SDS011;1071;52.544;13.374;2023-06-14T00:02:17;3.40;;;3.10;;
2129;SDS011;1071;52.544;13.374;2023-06-14T00:04:44;3.27;;;3.00;;
2129;SDS011;1071;52.544;13.374;2023-06-14T00:07:14;2.60;;;2.40;;
2129;SDS011;1071;52.544;13.374;2023-06-14T00:09:42;2.80;;;2.60;;
2129;SDS011;1071;52.544;13.374;2023-06-14T00:12:09;3.63;;;2.97;;
2129;SDS011;1071;52.544;13.374;2023-06-14T00:14:36;3.00;;;2.80;;
2129;SDS011;1071;52.544;13.374;2023-06-14T00:17:03;3.50;;;2.90;;
2129;SDS011;1071;52.544;13.374;2023-06-14T00:19:32;4.17;;;2.60;;
2129;SDS011;1071;52.544;13.374;2023-06-14T00:22:00;4.73;;;3.30;;
2129;SDS011;1071;52.544;13.374;2023-06-14T00:24:29;3.47;;;2.60;;
2129;SDS011;1071;52.544;13.374;2023-06-14T00:26:56;3.50;;;2.80;;
2129;SDS011;1071;52.544;13.374;2023-06-14T00:29:23;3.90;;;3.23;;
2129;SDS011;1071;52.544;13.374;2023-06-14T00:31:50;3.77;;;3.47;;
2129;SDS011;1071;52.544;13.374;2023-06-14T00:34:17;6.43;;;2.83;;
2129;SDS011;1071;52.544;13.374;2023-06-14T00:36:44;4.23;;;3.17;;
2129;SDS011;1071;52.544;13.374;2023-06-14T00:39:11;3.07;;;2.83;;
2129;SDS011;1071;52.544;13.374;2023-06-14T00:44:08;5.23;;;3.10;;
2129;SDS011;1071;52.544;13.374;2023-06-14T00:46:35;4.00;;;3.70;;
2129;SDS011;1071;52.544;13.374;2023-06-14T00:49:02;3.33;;;3.03;;
2129;SDS011;1071;52.544;13.374;2023-06-14T00:51:30;8.43;;;3.60;;
2129;SDS011;1071;52.544;13.374;2023-06-14T00:53:57;3.47;;;3.20;;
2129;SDS011;1071;52.544;13.374;2023-06-14T00:56:24;4.40;;;3.13;;
2129;SDS011;1071;52.544;13.374;2023-06-14T00:58:54;4.00;;;3.70;;
2129;SDS011;1071;52.544;13.374;2023-06-14T01:01:23;3.57;;;3.23;;
2129;SDS011;1071;52.544;13.374;2023-06-14T01:03:54;3.67;;;3.37;;
2129;SDS011;1071;52.544;13.374;2023-06-14T01:06:23;4.20;;;3.60;;
2129;SDS011;1071;52.544;13.374;2023-06-14T01:09:01;4.47;;;3.73;;
2129;SDS011;1071;52.544;13.374;2023-06-14T01:11:38;5.00;;;4.50;;
2129;SDS011;1071;52.544;13.374;2023-06-14T01:14:15;4.63;;;4.27;;
2129;SDS011;1071;52.544;13.374;2023-06-14T01:16:44;6.07;;;3.80;;
2129;SDS011;1071;52.544;13.374;2023-06-14T01:19:15;4.33;;;3.93;;
2129;SDS011;1071;52.544;13.374;2023-06-14T01:21:42;5.07;;;4.57;;
2129;SDS011;1071;52.544;13.374;2023-06-14T01:24:11;4.87;;;4.23;;
2129;SDS011;1071;52.544;13.374;2023-06-14T01:26:38;3.50;;;3.30;;
2129;SDS011;1071;52.544;13.374;2023-06-14T01:29:10;5.27;;;4.77;;
2129;SDS011;1071;52.544;13.374;2023-06-14T01:31:41;8.77;;;4.77;;
2129;SDS011;1071;52.544;13.374;2023-06-14T01:34:11;4.97;;;4.30;;
2129;SDS011;1071;52.544;13.374;2023-06-14T01:36:39;5.80;;;4.13;;
2129;SDS011;1071;52.544;13.374;2023-06-14T01:39:11;3.97;;;3.70;;
2129;SDS011;1071;52.544;13.374;2023-06-14T01:41:40;3.80;;;3.50;;
2129;SDS011;1071;52.544;13.374;2023-06-14T01:44:09;4.07;;;3.67;;
2129;SDS011;1071;52.544;13.374;2023-06-14T01:46:37;7.67;;;4.20;;
2129;SDS011;1071;52.544;13.374;2023-06-14T01:49:05;4.30;;;4.00;;
2129;SDS011;1071;52.544;13.374;2023-06-14T01:51:32;5.00;;;4.27;;
2129;SDS011;1071;52.544;13.374;2023-06-14T01:54:02;5.30;;;3.77;;
2129;SDS011;1071;52.544;13.374;2023-06-14T01:56:35;4.23;;;3.87;;
2129;SDS011;1071;52.544;13.374;2023-06-14T01:59:02;4.00;;;3.70;;
2129;SDS011;1071;52.544;13.374;2023-06-14T02:01:29;4.17;;;3.57;;
2129;SDS011;1071;52.544;13.374;2023-06-14T02:03:59;4.20;;;3.80;;
2129;SDS011;1071;52.544;13.374;2023-06-14T02:06:27;4.90;;;4.40;;
2129;SDS011;1071;52.544;13.374;2023-06-14T02:09:00;5.07;;;4.37;;
2129;SDS011;1071;52.544;13.374;2023-06-14T02:11:28;6.23;;;4.27;;
2129;SDS011;1071;52.544;13.374;2023-06-14T02:13:56;4.93;;;4.50;;
2129;SDS011;1071;52.544;13.374;2023-06-14T02:16:24;4.73;;;4.23;;
2129;SDS011;1071;52.544;13.374;2023-06-14T02:18:54;4.13;;;3.73;;
2129;SDS011;1071;52.544;13.374;2023-06-14T02:21:22;4.00;;;3.70;;
2129;SDS011;1071;52.544;13.374;2023-06-14T02:23:49;3.67;;;3.37;;
2129;SDS011;1071;52.544;13.374;2023-06-14T02:26:17;5.97;;;4.07;;
2129;SDS011;1071;52.544;13.374;2023-06-14T02:28:44;4.60;;;4.20;;
2129;SDS011;1071;52.544;13.374;2023-06-14T02:31:12;4.40;;;4.00;;
2129;SDS011;1071;52.544;13.374;2023-06-14T02:33:39;4.37;;;3.97;;
2129;SDS011;1071;52.544;13.374;2023-06-14T02:36:06;4.87;;;4.07;;
2129;SDS011;1071;52.544;13.374;2023-06-14T02:38:34;7.03;;;4.70;;
2129;SDS011;1071;52.544;13.374;2023-06-14T02:41:01;5.30;;;4.80;;
2129;SDS011;1071;52.544;13.374;2023-06-14T02:43:31;5.80;;;4.20;;
2129;SDS011;1071;52.544;13.374;2023-06-14T02:46:00;5.40;;;4.90;;
2129;SDS011;1071;52.544;13.374;2023-06-14T02:48:28;3.97;;;3.67;;
2129;SDS011;1071;52.544;13.374;2023-06-14T02:50:56;4.80;;;4.47;;
2129;SDS011;1071;52.544;13.374;2023-06-14T02:53:23;4.63;;;4.23;;
2129;SDS011;1071;52.544;13.374;2023-06-14T02:55:51;5.63;;;5.13;;
2129;SDS011;1071;52.544;13.374;2023-06-14T02:58:20;5.40;;;4.50;;
2129;SDS011;1071;52.544;13.374;2023-06-14T03:00:50;4.67;;;4.23;;
2129;SDS011;1071;52.544;13.374;2023-06-14T03:03:18;5.30;;;4.80;;
2129;SDS011;1071;52.544;13.374;2023-06-14T03:05:48;4.37;;;4.00;;
2129;SDS011;1071;52.544;13.374;2023-06-14T03:08:16;6.50;;;5.60;;
2129;SDS011;1071;52.544;13.374;2023-06-14T03:10:44;5.80;;;5.30;;
2129;SDS011;1071;52.544;13.374;2023-06-14T03:13:14;5.53;;;5.03;;
2129;SDS011;1071;52.544;13.374;2023-06-14T03:15:42;4.73;;;4.13;;
2129;SDS011;1071;52.544;13.374;2023-06-14T03:18:10;5.53;;;5.00;;
2129;SDS011;1071;52.544;13.374;2023-06-14T03:20:38;4.93;;;4.43;;
2129;SDS011;1071;52.544;13.374;2023-06-14T03:23:07;5.50;;;4.80;;
2129;SDS011;1071;52.544;13.374;2023-06-14T03:25:34;5.10;;;4.60;;
2129;SDS011;1071;52.544;13.374;2023-06-14T03:28:03;5.33;;;4.70;;
2129;SDS011;1071;52.544;13.374;2023-06-14T03:30:30;4.70;;;4.30;;
2129;SDS011;1071;52.544;13.374;2023-06-14T03:32:58;6.97;;;5.20;;
2129;SDS011;1071;52.544;13.374;2023-06-14T03:35:26;6.13;;;5.53;;
2129;SDS011;1071;52.544;13.374;2023-06-14T03:37:53;8.20;;;4.70;;
2129;SDS011;1071;52.544;13.374;2023-06-14T03:40:21;5.40;;;4.90;;
2129;SDS011;1071;52.544;13.374;2023-06-14T03:42:51;5.90;;;4.70;;
2129;SDS011;1071;52.544;13.374;2023-06-14T03:45:19;5.37;;;4.87;;
2129;SDS011;1071;52.544;13.374;2023-06-14T03:47:48;5.63;;;5.13;;
2129;SDS011;1071;52.544;13.374;2023-06-14T03:50:16;6.30;;;5.70;;
2129;SDS011;1071;52.544;13.374;2023-06-14T03:52:44;6.30;;;5.80;;
2129;SDS011;1071;52.544;13.374;2023-06-14T03:55:15;5.90;;;5.40;;
2129;SDS011;1071;52.544;13.374;2023-06-14T03:57:44;6.30;;;5.70;;
2129;SDS011;1071;52.544;13.374;2023-06-14T04:00:11;6.70;;;5.00;;
2129;SDS011;1071;52.544;13.374;2023-06-14T04:02:40;6.77;;;6.10;;
2129;SDS011;1071;52.544;13.374;2023-06-14T04:05:09;6.83;;;6.23;;
2129;SDS011;1071;52.544;13.374;2023-06-14T04:07:36;6.47;;;5.83;;
2129;SDS011;1071;52.544;13.374;2023-06-14T04:10:10;10.50;;;6.80;;
2129;SDS011;1071;52.544;13.374;2023-06-14T04:12:38;7.07;;;6.37;;
2129;SDS011;1071;52.544;13.374;2023-06-14T04:15:07;6.10;;;5.50;;
2129;SDS011;1071;52.544;13.374;2023-06-14T04:17:36;5.73;;;5.20;;
2129;SDS011;1071;52.544;13.374;2023-06-14T04:20:04;9.20;;;5.67;;
2129;SDS011;1071;52.544;13.374;2023-06-14T04:22:34;6.17;;;5.70;;
2129;SDS011;1071;52.544;13.374;2023-06-14T04:25:02;6.50;;;5.90;;
2129;SDS011;1071;52.544;13.374;2023-06-14T04:27:31;6.60;;;6.10;;
2129;SDS011;1071;52.544;13.374;2023-06-14T04:30:01;5.93;;;5.43;;
2129;SDS011;1071;52.544;13.374;2023-06-14T04:32:32;7.00;;;6.50;;
2129;SDS011;1071;52.544;13.374;2023-06-14T04:35:04;5.27;;;4.87;;
2129;SDS011;1071;52.544;13.374;2023-06-14T04:37:32;5.60;;;5.10;;
2129;SDS011;1071;52.544;13.374;2023-06-14T04:39:59;11.10;;;6.47;;
2129;SDS011;1071;52.544;13.374;2023-06-14T04:42:30;6.20;;;5.60;;
2129;SDS011;1071;52.544;13.374;2023-06-14T04:44:57;6.00;;;5.60;;
2129;SDS011;1071;52.544;13.374;2023-06-14T04:47:24;6.73;;;6.03;;
2129;SDS011;1071;52.544;13.374;2023-06-14T04:49:57;11.57;;;6.90;;
2129;SDS011;1071;52.544;13.374;2023-06-14T04:52:25;7.50;;;6.80;;
2129;SDS011;1071;52.544;13.374;2023-06-14T04:54:54;7.83;;;6.57;;
2129;SDS011;1071;52.544;13.374;2023-06-14T04:57:21;7.03;;;6.30;;
2129;SDS011;1071;52.544;13.374;2023-06-14T04:59:50;5.67;;;5.17;;
2129;SDS011;1071;52.544;13.374;2023-06-14T05:02:19;5.60;;;5.20;;
2129;SDS011;1071;52.544;13.374;2023-06-14T05:04:47;6.47;;;5.87;;
2129;SDS011;1071;52.544;13.374;2023-06-14T05:07:15;9.13;;;6.60;;
2129;SDS011;1071;52.544;13.374;2023-06-14T05:09:48;6.13;;;5.73;;
2129;SDS011;1071;52.544;13.374;2023-06-14T05:12:16;6.97;;;5.97;;
2129;SDS011;1071;52.544;13.374;2023-06-14T05:14:44;6.50;;;5.57;;
2129;SDS011;1071;52.544;13.374;2023-06-14T05:17:35;6.20;;;5.60;;
2129;SDS011;1071;52.544;13.374;2023-06-14T05:20:06;7.40;;;6.70;;
2129;SDS011;1071;52.544;13.374;2023-06-14T05:22:36;7.67;;;6.43;;
2129;SDS011;1071;52.544;13.374;2023-06-14T05:25:03;5.90;;;5.40;;
2129;SDS011;1071;52.544;13.374;2023-06-14T05:27:31;10.20;;;6.63;;
2129;SDS011;1071;52.544;13.374;2023-06-14T05:30:02;10.70;;;7.20;;
2129;SDS011;1071;52.544;13.374;2023-06-14T05:32:30;6.27;;;5.67;;
2129;SDS011;1071;52.544;13.374;2023-06-14T05:34:58;8.30;;;7.13;;
2129;SDS011;1071;52.544;13.374;2023-06-14T05:37:25;5.50;;;5.10;;
2129;SDS011;1071;52.544;13.374;2023-06-14T05:39:53;7.13;;;6.43;;
2129;SDS011;1071;52.544;13.374;2023-06-14T05:42:20;7.77;;;6.90;;
2129;SDS011;1071;52.544;13.374;2023-06-14T05:44:48;7.10;;;6.37;;
2129;SDS011;1071;52.544;13.374;2023-06-14T05:47:16;10.60;;;7.63;;
2129;SDS011;1071;52.544;13.374;2023-06-14T05:49:45;6.47;;;5.87;;
2129;SDS011;1071;52.544;13.374;2023-06-14T05:52:12;8.77;;;6.20;;
2129;SDS011;1071;52.544;13.374;2023-06-14T05:54:39;6.27;;;5.67;;
2129;SDS011;1071;52.544;13.374;2023-06-14T05:57:07;7.80;;;7.10;;
2129;SDS011;1071;52.544;13.374;2023-06-14T05:59:35;7.80;;;7.10;;
2129;SDS011;1071;52.544;13.374;2023-06-14T06:02:03;5.53;;;5.10;;
2129;SDS011;1071;52.544;13.374;2023-06-14T06:04:31;6.43;;;5.83;;
2129;SDS011;1071;52.544;13.374;2023-06-14T06:07:00;5.70;;;5.10;;
2129;SDS011;1071;52.544;13.374;2023-06-14T06:09:34;5.40;;;4.90;;
2129;SDS011;1071;52.544;13.374;2023-06-14T06:12:04;7.20;;;6.60;;
2129;SDS011;1071;52.544;13.374;2023-06-14T06:14:34;6.77;;;6.07;;
2129;SDS011;1071;52.544;13.374;2023-06-14T06:17:06;9.20;;;5.47;;
2129;SDS011;1071;52.544;13.374;2023-06-14T06:19:33;7.03;;;6.33;;
2129;SDS011;1071;52.544;13.374;2023-06-14T06:22:00;6.23;;;5.43;;
2129;SDS011;1071;52.544;13.374;2023-06-14T06:24:27;6.47;;;5.90;;
2129;SDS011;1071;52.544;13.374;2023-06-14T06:26:55;6.23;;;5.30;;
2129;SDS011;1071;52.544;13.374;2023-06-14T06:29:22;6.13;;;5.57;;
2129;SDS011;1071;52.544;13.374;2023-06-14T06:31:53;5.30;;;4.80;;
2129;SDS011;1071;52.544;13.374;2023-06-14T06:34:21;6.20;;;5.63;;
2129;SDS011;1071;52.544;13.374;2023-06-14T06:36:48;6.10;;;5.50;;
2129;SDS011;1071;52.544;13.374;2023-06-14T06:39:16;8.07;;;6.43;;
2129;SDS011;1071;52.544;13.374;2023-06-14T06:41:46;8.17;;;6.93;;
2129;SDS011;1071;52.544;13.374;2023-06-14T06:44:14;6.57;;;5.97;;
2129;SDS011;1071;52.544;13.374;2023-06-14T06:46:43;9.37;;;5.50;;
2129;SDS011;1071;52.544;13.374;2023-06-14T06:49:14;7.40;;;6.57;;
2129;SDS011;1071;52.544;13.374;2023-06-14T06:51:41;7.87;;;6.70;;
2129;SDS011;1071;52.544;13.374;2023-06-14T06:54:09;7.03;;;5.03;;
2129;SDS011;1071;52.544;13.374;2023-06-14T06:56:37;7.27;;;5.67;;
2129;SDS011;1071;52.544;13.374;2023-06-14T06:59:04;7.07;;;6.37;;
2129;SDS011;1071;52.544;13.374;2023-06-14T07:01:31;8.37;;;6.17;;
2129;SDS011;1071;52.544;13.374;2023-06-14T07:03:58;7.10;;;6.57;;
2129;SDS011;1071;52.544;13.374;2023-06-14T07:06:28;5.80;;;5.30;;
2129;SDS011;1071;52.544;13.374;2023-06-14T07:08:55;6.10;;;5.50;;
2129;SDS011;1071;52.544;13.374;2023-06-14T07:11:26;7.67;;;6.87;;
2129;SDS011;1071;52.544;13.374;2023-06-14T07:13:53;6.83;;;5.50;;
2129;SDS011;1071;52.544;13.374;2023-06-14T07:16:20;6.20;;;5.63;;
2129;SDS011;1071;52.544;13.374;2023-06-14T07:18:48;6.67;;;6.07;;
2129;SDS011;1071;52.544;13.374;2023-06-14T07:21:18;8.43;;;5.40;;
2129;SDS011;1071;52.544;13.374;2023-06-14T07:23:47;8.07;;;6.20;;
2129;SDS011;1071;52.544;13.374;2023-06-14T07:26:14;6.20;;;5.23;;
2129;SDS011;1071;52.544;13.374;2023-06-14T07:28:41;5.33;;;4.83;;
2129;SDS011;1071;52.544;13.374;2023-06-14T07:31:10;5.70;;;5.23;;
2129;SDS011;1071;52.544;13.374;2023-06-14T07:33:37;7.40;;;5.20;;
2129;SDS011;1071;52.544;13.374;2023-06-14T07:36:05;5.83;;;5.10;;
2129;SDS011;1071;52.544;13.374;2023-06-14T07:38:32;6.20;;;5.60;;
2129;SDS011;1071;52.544;13.374;2023-06-14T07:41:02;5.30;;;4.80;;
2129;SDS011;1071;52.544;13.374;2023-06-14T07:43:29;6.30;;;5.80;;
2129;SDS011;1071;52.544;13.374;2023-06-14T07:45:56;7.97;;;5.80;;
2129;SDS011;1071;52.544;13.374;2023-06-14T07:48:25;6.57;;;5.70;;
2129;SDS011;1071;52.544;13.374;2023-06-14T07:50:54;5.80;;;5.27;;
2129;SDS011;1071;52.544;13.374;2023-06-14T07:53:21;8.27;;;5.67;;
2129;SDS011;1071;52.544;13.374;2023-06-14T07:55:48;7.13;;;5.00;;
2129;SDS011;1071;52.544;13.374;2023-06-14T07:58:17;6.47;;;5.70;;
2129;SDS011;1071;52.544;13.374;2023-06-14T08:00:45;7.10;;;6.03;;
2129;SDS011;1071;52.544;13.374;2023-06-14T08:03:16;6.80;;;5.90;;
2129;SDS011;1071;52.544;13.374;2023-06-14T08:05:44;5.60;;;4.67;;
2129;SDS011;1071;52.544;13.374;2023-06-14T08:08:11;6.33;;;4.53;;
2129;SDS011;1071;52.544;13.374;2023-06-14T08:10:38;5.53;;;5.03;;
2129;SDS011;1071;52.544;13.374;2023-06-14T08:13:05;5.37;;;4.87;;
2129;SDS011;1071;52.544;13.374;2023-06-14T08:15:35;5.20;;;4.80;;
2129;SDS011;1071;52.544;13.374;2023-06-14T08:18:02;5.57;;;4.60;;
2129;SDS011;1071;52.544;13.374;2023-06-14T08:20:29;5.63;;;5.23;;
2129;SDS011;1071;52.544;13.374;2023-06-14T08:22:57;5.40;;;4.90;;
2129;SDS011;1071;52.544;13.374;2023-06-14T08:25:24;6.30;;;5.30;;
2129;SDS011;1071;52.544;13.374;2023-06-14T08:27:51;4.70;;;4.23;;
2129;SDS011;1071;52.544;13.374;2023-06-14T08:30:18;5.30;;;4.63;;
2129;SDS011;1071;52.544;13.374;2023-06-14T08:32:47;6.60;;;4.60;;
2129;SDS011;1071;52.544;13.374;2023-06-14T08:35:14;8.03;;;4.97;;
2129;SDS011;1071;52.544;13.374;2023-06-14T08:37:43;4.67;;;4.17;;
2129;SDS011;1071;52.544;13.374;2023-06-14T08:40:13;6.60;;;4.57;;
2129;SDS011;1071;52.544;13.374;2023-06-14T08:42:47;9.40;;;4.47;;
2129;SDS011;1071;52.544;13.374;2023-06-14T08:45:19;8.67;;;5.50;;
2129;SDS011;1071;52.544;13.374;2023-06-14T08:47:50;5.07;;;4.63;;
2129;SDS011;1071;52.544;13.374;2023-06-14T08:50:26;5.87;;;5.37;;
2129;SDS011;1071;52.544;13.374;2023-06-14T08:52:55;6.10;;;4.70;;
2129;SDS011;1071;52.544;13.374;2023-06-14T08:55:25;5.23;;;4.10;;
2129;SDS011;1071;52.544;13.374;2023-06-14T08:57:55;7.83;;;4.77;;
2129;SDS011;1071;52.544;13.374;2023-06-14T09:00:24;5.47;;;4.27;;
2129;SDS011;1071;52.544;13.374;2023-06-14T09:02:52;4.60;;;4.20;;
2129;SDS011;1071;52.544;13.374;2023-06-14T09:05:22;4.97;;;3.80;;
2129;SDS011;1071;52.544;13.374;2023-06-14T09:07:53;8.77;;;3.33;;
2129;SDS011;1071;52.544;13.374;2023-06-14T09:10:21;5.97;;;3.80;;
2129;SDS011;1071;52.544;13.374;2023-06-14T09:12:50;3.50;;;3.20;;
2129;SDS011;1071;52.544;13.374;2023-06-14T09:15:18;5.97;;;4.47;;
2129;SDS011;1071;52.544;13.374;2023-06-14T09:17:45;14.17;;;5.00;;
2129;SDS011;1071;52.544;13.374;2023-06-14T09:20:14;8.50;;;5.13;;
2129;SDS011;1071;52.544;13.374;2023-06-14T09:22:43;8.17;;;4.20;;
2129;SDS011;1071;52.544;13.374;2023-06-14T09:25:10;4.50;;;4.17;;
2129;SDS011;1071;52.544;13.374;2023-06-14T09:27:40;5.73;;;5.23;;
2129;SDS011;1071;52.544;13.374;2023-06-14T09:30:10;5.47;;;4.40;;
2129;SDS011;1071;52.544;13.374;2023-06-14T09:32:41;6.10;;;4.80;;
2129;SDS011;1071;52.544;13.374;2023-06-14T09:35:08;4.33;;;3.90;;
2129;SDS011;1071;52.544;13.374;2023-06-14T09:37:38;4.80;;;4.40;;
2129;SDS011;1071;52.544;13.374;2023-06-14T09:40:06;10.50;;;5.40;;
2129;SDS011;1071;52.544;13.374;2023-06-14T09:42:36;5.13;;;4.30;;
2129;SDS011;1071;52.544;13.374;2023-06-14T09:45:06;5.80;;;4.40;;
2129;SDS011;1071;52.544;13.374;2023-06-14T09:47:36;4.80;;;4.27;;
2129;SDS011;1071;52.544;13.374;2023-06-14T09:50:04;6.97;;;4.47;;
2129;SDS011;1071;52.544;13.374;2023-06-14T09:52:34;4.47;;;4.07;;
2129;SDS011;1071;52.544;13.374;2023-06-14T09:55:03;6.20;;;4.50;;
2129;SDS011;1071;52.544;13.374;2023-06-14T09:57:47;5.53;;;4.37;;
2129;SDS011;1071;52.544;13.374;2023-06-14T10:00:16;7.40;;;4.70;;
2129;SDS011;1071;52.544;13.374;2023-06-14T10:02:45;6.67;;;4.60;;
2129;SDS011;1071;52.544;13.374;2023-06-14T10:05:21;5.90;;;4.60;;
2129;SDS011;1071;52.544;13.374;2023-06-14T10:07:51;4.83;;;4.37;;
2129;SDS011;1071;52.544;13.374;2023-06-14T10:10:23;5.00;;;3.90;;
2129;SDS011;1071;52.544;13.374;2023-06-14T10:12:50;5.20;;;4.70;;
2129;SDS011;1071;52.544;13.374;2023-06-14T10:15:19;8.83;;;5.10;;
2129;SDS011;1071;52.544;13.374;2023-06-14T10:17:50;6.67;;;4.60;;
2129;SDS011;1071;52.544;13.374;2023-06-14T10:20:25;5.63;;;4.20;;
2129;SDS011;1071;52.544;13.374;2023-06-14T10:22:56;7.50;;;4.40;;
2129;SDS011;1071;52.544;13.374;2023-06-14T10:25:30;5.03;;;4.30;;
2129;SDS011;1071;52.544;13.374;2023-06-14T10:28:14;8.37;;;4.80;;
2129;SDS011;1071;52.544;13.374;2023-06-14T10:31:02;6.43;;;4.47;;
2129;SDS011;1071;52.544;13.374;2023-06-14T10:33:33;7.50;;;5.00;;
2129;SDS011;1071;52.544;13.374;2023-06-14T10:36:07;5.50;;;5.00;;
2129;SDS011;1071;52.544;13.374;2023-06-14T10:38:37;6.63;;;4.90;;
2129;SDS011;1071;52.544;13.374;2023-06-14T10:41:06;5.07;;;4.63;;
2129;SDS011;1071;52.544;13.374;2023-06-14T10:43:33;5.33;;;4.83;;
2129;SDS011;1071;52.544;13.374;2023-06-14T10:46:16;5.00;;;4.53;;
2129;SDS011;1071;52.544;13.374;2023-06-14T10:48:48;7.23;;;5.00;;
2129;SDS011;1071;52.544;13.374;2023-06-14T10:51:15;4.73;;;4.33;;
2129;SDS011;1071;52.544;13.374;2023-06-14T10:53:45;4.33;;;3.93;;
2129;SDS011;1071;52.544;13.374;2023-06-14T10:56:28;7.83;;;4.40;;
2129;SDS011;1071;52.544;13.374;2023-06-14T10:58:56;6.97;;;4.33;;
2129;SDS011;1071;52.544;13.374;2023-06-14T11:01:31;5.93;;;4.80;;
2129;SDS011;1071;52.544;13.374;2023-06-14T11:04:06;6.37;;;4.90;;
2129;SDS011;1071;52.544;13.374;2023-06-14T11:09:44;5.80;;;4.17;;
2129;SDS011;1071;52.544;13.374;2023-06-14T11:12:29;4.97;;;4.50;;
2129;SDS011;1071;52.544;13.374;2023-06-14T11:15:00;5.43;;;3.70;;
2129;SDS011;1071;52.544;13.374;2023-06-14T11:17:28;7.33;;;4.33;;
2129;SDS011;1071;52.544;13.374;2023-06-14T11:20:07;9.37;;;5.03;;
2129;SDS011;1071;52.544;13.374;2023-06-14T11:22:38;5.50;;;4.37;;
2129;SDS011;1071;52.544;13.374;2023-06-14T11:25:08;5.00;;;3.90;;
2129;SDS011;1071;52.544;13.374;2023-06-14T11:27:36;6.93;;;4.90;;
2129;SDS011;1071;52.544;13.374;2023-06-14T11:30:06;6.40;;;4.27;;
2129;SDS011;1071;52.544;13.374;2023-06-14T11:32:34;5.60;;;4.50;;
2129;SDS011;1071;52.544;13.374;2023-06-14T11:35:02;5.17;;;4.77;;
2129;SDS011;1071;52.544;13.374;2023-06-14T11:37:30;6.90;;;4.60;;
2129;SDS011;1071;52.544;13.374;2023-06-14T11:39:58;4.67;;;4.00;;
2129;SDS011;1071;52.544;13.374;2023-06-14T11:42:26;5.73;;;4.30;;
2129;SDS011;1071;52.544;13.374;2023-06-14T11:44:55;4.63;;;4.03;;
2129;SDS011;1071;52.544;13.374;2023-06-14T11:47:22;8.80;;;4.47;;
2129;SDS011;1071;52.544;13.374;2023-06-14T11:49:51;6.20;;;4.67;;
2129;SDS011;1071;52.544;13.374;2023-06-14T11:52:18;8.77;;;4.30;;
2129;SDS011;1071;52.544;13.374;2023-06-14T11:54:48;8.53;;;4.00;;
2129;SDS011;1071;52.544;13.374;2023-06-14T11:57:15;5.57;;;4.60;;
2129;SDS011;1071;52.544;13.374;2023-06-14T11:59:44;5.10;;;3.70;;
2129;SDS011;1071;52.544;13.374;2023-06-14T12:02:16;4.00;;;3.60;;
2129;SDS011;1071;52.544;13.374;2023-06-14T12:04:49;9.70;;;3.60;;
2129;SDS011;1071;52.544;13.374;2023-06-14T12:07:19;4.20;;;3.90;;
2129;SDS011;1071;52.544;13.374;2023-06-14T12:12:36;5.13;;;4.10;;
2129;SDS011;1071;52.544;13.374;2023-06-14T12:15:04;4.77;;;3.40;;
2129;SDS011;1071;52.544;13.374;2023-06-14T12:17:34;7.60;;;3.73;;
2129;SDS011;1071;52.544;13.374;2023-06-14T12:20:07;4.80;;;4.33;;
2129;SDS011;1071;52.544;13.374;2023-06-14T12:22:38;9.10;;;3.90;;
2129;SDS011;1071;52.544;13.374;2023-06-14T12:25:06;6.10;;;4.50;;
2129;SDS011;1071;52.544;13.374;2023-06-14T12:27:39;6.93;;;3.90;;
2129;SDS011;1071;52.544;13.374;2023-06-14T12:30:07;4.20;;;3.80;;
2129;SDS011;1071;52.544;13.374;2023-06-14T12:36:08;5.10;;;4.40;;
2129;SDS011;1071;52.544;13.374;2023-06-14T12:38:36;3.73;;;3.40;;
2129;SDS011;1071;52.544;13.374;2023-06-14T12:41:04;7.53;;;4.47;;
2129;SDS011;1071;52.544;13.374;2023-06-14T12:43:31;5.43;;;3.90;;
2129;SDS011;1071;52.544;13.374;2023-06-14T12:45:58;5.87;;;4.17;;
2129;SDS011;1071;52.544;13.374;2023-06-14T12:48:25;4.10;;;3.80;;
2129;SDS011;1071;52.544;13.374;2023-06-14T12:50:54;7.57;;;4.30;;
2129;SDS011;1071;52.544;13.374;2023-06-14T12:53:23;7.67;;;3.63;;
2129;SDS011;1071;52.544;13.374;2023-06-14T12:55:51;4.73;;;3.77;;
2129;SDS011;1071;52.544;13.374;2023-06-14T12:58:18;5.73;;;3.87;;
2129;SDS011;1071;52.544;13.374;2023-06-14T13:00:48;4.97;;;3.90;;
2129;SDS011;1071;52.544;13.374;2023-06-14T13:03:15;7.63;;;3.30;;
2129;SDS011;1071;52.544;13.374;2023-06-14T13:05:42;7.13;;;4.00;;
2129;SDS011;1071;52.544;13.374;2023-06-14T13:08:09;8.23;;;4.30;;
2129;SDS011;1071;52.544;13.374;2023-06-14T13:10:37;9.00;;;4.00;;
2129;SDS011;1071;52.544;13.374;2023-06-14T13:13:04;4.90;;;3.63;;
2129;SDS011;1071;52.544;13.374;2023-06-14T13:15:32;5.30;;;4.37;;
2129;SDS011;1071;52.544;13.374;2023-06-14T13:18:00;6.70;;;4.10;;
2129;SDS011;1071;52.544;13.374;2023-06-14T13:20:28;5.07;;;3.60;;
2129;SDS011;1071;52.544;13.374;2023-06-14T13:22:54;5.97;;;4.37;;
2129;SDS011;1071;52.544;13.374;2023-06-14T13:25:21;7.27;;;3.90;;
2129;SDS011;1071;52.544;13.374;2023-06-14T13:27:51;6.17;;;4.33;;
2129;SDS011;1071;52.544;13.374;2023-06-14T13:30:18;4.70;;;3.90;;
2129;SDS011;1071;52.544;13.374;2023-06-14T13:32:46;6.10;;;3.70;;
2129;SDS011;1071;52.544;13.374;2023-06-14T13:35:14;6.57;;;3.47;;
2129;SDS011;1071;52.544;13.374;2023-06-14T13:37:44;4.73;;;3.40;;
2129;SDS011;1071;52.544;13.374;2023-06-14T13:40:11;5.50;;;4.03;;
2129;SDS011;1071;52.544;13.374;2023-06-14T13:42:39;5.97;;;3.63;;
2129;SDS011;1071;52.544;13.374;2023-06-14T13:45:10;5.43;;;3.40;;
2129;SDS011;1071;52.544;13.374;2023-06-14T13:47:41;4.60;;;3.53;;
2129;SDS011;1071;52.544;13.374;2023-06-14T13:50:09;3.90;;;3.50;;
2129;SDS011;1071;52.544;13.374;2023-06-14T13:52:36;4.07;;;3.13;;
2129;SDS011;1071;52.544;13.374;2023-06-14T13:55:03;3.23;;;2.93;;
2129;SDS011;1071;52.544;13.374;2023-06-14T13:57:31;5.93;;;3.83;;
2129;SDS011;1071;52.544;13.374;2023-06-14T13:59:58;3.87;;;3.43;;
2129;SDS011;1071;52.544;13.374;2023-06-14T14:02:29;6.00;;;3.40;;
2129;SDS011;1071;52.544;13.374;2023-06-14T14:04:56;5.20;;;3.90;;
2129;SDS011;1071;52.544;13.374;2023-06-14T14:07:24;5.80;;;3.43;;
2129;SDS011;1071;52.544;13.374;2023-06-14T14:09:51;3.37;;;3.17;;
2129;SDS011;1071;52.544;13.374;2023-06-14T14:12:19;4.87;;;3.63;;
2129;SDS011;1071;52.544;13.374;2023-06-14T14:14:46;6.17;;;3.47;;
2129;SDS011;1071;52.544;13.374;2023-06-14T14:17:13;5.37;;;3.20;;
2129;SDS011;1071;52.544;13.374;2023-06-14T14:19:44;5.33;;;4.10;;
2129;SDS011;1071;52.544;13.374;2023-06-14T14:22:11;4.00;;;2.87;;
2129;SDS011;1071;52.544;13.374;2023-06-14T14:24:38;4.07;;;3.60;;
2129;SDS011;1071;52.544;13.374;2023-06-14T14:27:05;6.40;;;4.10;;
2129;SDS011;1071;52.544;13.374;2023-06-14T14:29:32;6.20;;;3.97;;
2129;SDS011;1071;52.544;13.374;2023-06-14T14:32:00;5.60;;;3.93;;
2129;SDS011;1071;52.544;13.374;2023-06-14T14:34:27;4.60;;;3.90;;
2129;SDS011;1071;52.544;13.374;2023-06-14T14:36:56;4.50;;;3.90;;
2129;SDS011;1071;52.544;13.374;2023-06-14T14:39:23;7.50;;;3.80;;
2129;SDS011;1071;52.544;13.374;2023-06-14T14:41:50;6.80;;;4.40;;
2129;SDS011;1071;52.544;13.374;2023-06-14T14:44:17;5.80;;;3.77;;
2129;SDS011;1071;52.544;13.374;2023-06-14T14:46:44;4.90;;;3.50;;
2129;SDS011;1071;52.544;13.374;2023-06-14T14:49:11;5.73;;;3.93;;
2129;SDS011;1071;52.544;13.374;2023-06-14T14:51:39;4.47;;;3.80;;
2129;SDS011;1071;52.544;13.374;2023-06-14T14:54:07;6.67;;;4.27;;
2129;SDS011;1071;52.544;13.374;2023-06-14T14:56:34;3.93;;;3.27;;
2129;SDS011;1071;52.544;13.374;2023-06-14T14:59:03;6.50;;;3.80;;
2129;SDS011;1071;52.544;13.374;2023-06-14T15:01:30;9.17;;;4.40;;
2129;SDS011;1071;52.544;13.374;2023-06-14T15:03:57;4.63;;;3.90;;
2129;SDS011;1071;52.544;13.374;2023-06-14T15:06:24;6.60;;;4.53;;
2129;SDS011;1071;52.544;13.374;2023-06-14T15:08:52;4.97;;;4.00;;
2129;SDS011;1071;52.544;13.374;2023-06-14T15:11:20;5.20;;;3.90;;
2129;SDS011;1071;52.544;13.374;2023-06-14T15:13:47;4.50;;;4.10;;
2129;SDS011;1071;52.544;13.374;2023-06-14T15:16:15;4.30;;;3.80;;
2129;SDS011;1071;52.544;13.374;2023-06-14T15:18:42;5.67;;;3.60;;
2129;SDS011;1071;52.544;13.374;2023-06-14T15:21:09;4.53;;;4.00;;
2129;SDS011;1071;52.544;13.374;2023-06-14T15:23:36;6.00;;;3.43;;